createdAt,value
2022-12-29T00:01:11.167Z,7.23
2022-12-29T00:03:39.308Z,6.70
2022-12-29T00:06:07.426Z,7.53
2022-12-29T00:08:41.602Z,7.33
2022-12-29T00:11:10.315Z,6.43
2022-12-29T00:13:57.388Z,6.97
2022-12-29T00:16:25.540Z,7.53
2022-12-29T00:18:53.803Z,6.73
2022-12-29T00:21:41.320Z,6.90
2022-12-29T00:24:31.421Z,6.20
2022-12-29T00:27:24.077Z,7.20
2022-12-29T00:30:11.837Z,6.47
2022-12-29T00:32:57.190Z,6.90
2022-12-29T00:35:29.187Z,6.77
2022-12-29T00:38:16.648Z,6.60
2022-12-29T00:41:01.981Z,6.40
2022-12-29T00:43:47.509Z,6.10
2022-12-29T00:46:19.908Z,6.67
2022-12-29T00:49:06.080Z,6.37
2022-12-29T00:51:34.047Z,6.00
2022-12-29T00:54:02.117Z,5.70
2022-12-29T00:56:30.180Z,5.33
2022-12-29T00:59:01.512Z,7.30
2022-12-29T01:01:31.396Z,6.00
2022-12-29T01:04:03.671Z,5.93
2022-12-29T01:06:33.293Z,6.47
2022-12-29T01:09:18.623Z,6.23
2022-12-29T01:11:46.561Z,5.43
2022-12-29T01:14:15.016Z,5.10
2022-12-29T01:16:44.639Z,6.03
2022-12-29T01:19:12.800Z,5.53
2022-12-29T01:21:40.707Z,5.40
2022-12-29T01:24:08.772Z,5.30
2022-12-29T01:26:36.738Z,5.27
2022-12-29T01:29:04.752Z,5.07
2022-12-29T01:31:32.762Z,5.43
2022-12-29T01:34:02.452Z,5.30
2022-12-29T01:36:30.979Z,5.50
2022-12-29T01:39:00.280Z,5.33
2022-12-29T01:41:28.669Z,5.10
2022-12-29T01:43:58.447Z,5.20
2022-12-29T01:46:30.172Z,4.87
2022-12-29T01:49:07.477Z,5.20
2022-12-29T01:51:39.820Z,5.37
2022-12-29T01:54:12.114Z,5.10
2022-12-29T01:56:40.349Z,4.73
2022-12-29T01:59:13.248Z,5.33
2022-12-29T02:01:43.294Z,4.77
2022-12-29T02:04:14.518Z,4.40
2022-12-29T02:06:48.042Z,5.13
2022-12-29T02:09:17.133Z,5.13
2022-12-29T02:11:46.274Z,4.67
2022-12-29T02:14:15.649Z,4.60
2022-12-29T02:16:57.087Z,4.50
2022-12-29T02:19:57.143Z,4.67
2022-12-29T02:22:34.274Z,4.63
2022-12-29T02:25:32.801Z,4.63
2022-12-29T02:28:26.296Z,4.50
2022-12-29T02:31:07.468Z,5.17
2022-12-29T02:33:53.587Z,4.60
2022-12-29T02:36:31.027Z,4.60
2022-12-29T02:39:08.464Z,4.40
2022-12-29T02:41:43.596Z,4.17
2022-12-29T02:44:17.584Z,4.27
2022-12-29T02:46:53.628Z,4.73
2022-12-29T02:49:29.676Z,4.73
2022-12-29T02:52:03.036Z,4.40
2022-12-29T02:54:42.938Z,4.83
2022-12-29T02:57:15.060Z,4.90
2022-12-29T02:59:45.284Z,4.77
2022-12-29T03:02:33.075Z,4.53
2022-12-29T03:05:16.969Z,4.80
2022-12-29T03:07:52.248Z,5.40
2022-12-29T03:10:32.881Z,4.77
2022-12-29T03:13:27.531Z,4.80
2022-12-29T03:16:03.459Z,4.33
2022-12-29T03:18:46.139Z,4.63
2022-12-29T03:21:19.696Z,5.03
2022-12-29T03:23:50.815Z,5.03
2022-12-29T03:26:21.828Z,4.80
2022-12-29T03:28:55.351Z,5.30
2022-12-29T03:31:27.490Z,4.70
2022-12-29T03:34:00.557Z,5.10
2022-12-29T03:36:32.597Z,5.30
2022-12-29T03:39:05.900Z,5.00
2022-12-29T03:41:36.367Z,5.00
2022-12-29T03:44:08.070Z,5.00
2022-12-29T03:46:36.683Z,5.07
2022-12-29T03:49:07.524Z,5.50
2022-12-29T03:51:35.416Z,5.10
2022-12-29T03:54:04.701Z,5.50
2022-12-29T03:56:32.736Z,5.50
2022-12-29T03:59:00.723Z,4.70
2022-12-29T04:01:40.317Z,5.00
2022-12-29T04:04:10.514Z,5.60
2022-12-29T04:06:38.903Z,5.10
2022-12-29T04:09:09.555Z,5.90
2022-12-29T04:11:42.572Z,6.43
2022-12-29T04:14:10.737Z,6.77
2022-12-29T04:16:39.885Z,5.70
2022-12-29T04:19:10.253Z,5.67
2022-12-29T04:21:38.979Z,5.23
2022-12-29T04:24:08.046Z,4.87
2022-12-29T04:26:40.800Z,6.00
2022-12-29T04:29:27.211Z,8.83
2022-12-29T04:32:14.205Z,6.97
2022-12-29T04:34:48.629Z,5.47
2022-12-29T04:37:16.674Z,4.83
2022-12-29T04:39:44.630Z,5.03
2022-12-29T04:42:13.389Z,5.20
2022-12-29T04:44:45.056Z,5.80
2022-12-29T04:47:17.351Z,5.43
2022-12-29T04:49:58.145Z,5.77
2022-12-29T04:52:41.793Z,5.57
2022-12-29T04:55:11.988Z,5.47
2022-12-29T04:57:40.187Z,5.67
2022-12-29T05:00:10.985Z,5.60
2022-12-29T05:02:39.638Z,5.43
2022-12-29T05:05:10.155Z,5.10
2022-12-29T05:07:42.920Z,4.80
2022-12-29T05:10:11.383Z,5.07
2022-12-29T05:12:39.800Z,4.83
2022-12-29T05:15:11.015Z,5.63
2022-12-29T05:17:39.780Z,6.03
2022-12-29T05:20:11.526Z,5.53
2022-12-29T05:22:40.209Z,4.90
2022-12-29T05:25:09.782Z,5.20
2022-12-29T05:27:50.392Z,5.60
2022-12-29T05:30:28.804Z,5.63
2022-12-29T05:32:56.794Z,5.37
2022-12-29T05:35:26.455Z,5.73
2022-12-29T05:37:54.707Z,5.93
2022-12-29T05:40:22.727Z,6.10
2022-12-29T05:42:50.754Z,6.07
2022-12-29T05:45:40.492Z,6.10
2022-12-29T05:48:28.074Z,5.90
2022-12-29T05:51:26.081Z,6.10
2022-12-29T05:53:55.555Z,6.73
2022-12-29T05:56:24.334Z,6.53
2022-12-29T05:58:57.667Z,7.20
2022-12-29T06:01:26.388Z,7.27
2022-12-29T06:03:56.003Z,7.23
2022-12-29T06:06:25.489Z,6.73
2022-12-29T06:08:54.514Z,6.53
2022-12-29T06:11:22.980Z,6.40
2022-12-29T06:13:54.978Z,6.27
2022-12-29T06:16:24.798Z,6.60
2022-12-29T06:18:56.165Z,6.67
2022-12-29T06:21:25.471Z,6.50
2022-12-29T06:23:53.453Z,6.53
2022-12-29T06:26:22.217Z,6.33
2022-12-29T06:28:50.212Z,7.00
2022-12-29T06:31:18.157Z,6.63
2022-12-29T06:33:49.841Z,7.37
2022-12-29T06:36:18.642Z,8.20
2022-12-29T06:38:48.260Z,8.00
2022-12-29T06:41:16.257Z,7.07
2022-12-29T06:43:45.178Z,6.80
2022-12-29T06:46:22.437Z,6.17
2022-12-29T06:48:50.398Z,6.53
2022-12-29T06:51:18.417Z,6.73
2022-12-29T06:53:47.673Z,6.60
2022-12-29T06:56:15.599Z,6.87
2022-12-29T06:58:43.516Z,6.20
2022-12-29T07:01:11.453Z,6.77
2022-12-29T07:03:39.449Z,6.00
2022-12-29T07:06:07.891Z,6.30
2022-12-29T07:08:35.923Z,6.47
2022-12-29T07:11:05.459Z,6.97
2022-12-29T07:13:33.327Z,7.33
2022-12-29T07:16:01.237Z,6.30
2022-12-29T07:18:29.162Z,5.70
2022-12-29T07:20:57.069Z,6.17
2022-12-29T07:23:24.996Z,5.87
2022-12-29T07:26:00.317Z,5.83
2022-12-29T07:28:29.649Z,5.80
2022-12-29T07:30:57.857Z,7.13
2022-12-29T07:33:25.842Z,7.90
2022-12-29T07:35:54.032Z,7.97
2022-12-29T07:38:22.025Z,7.10
2022-12-29T07:40:50.039Z,6.50
2022-12-29T07:43:17.989Z,6.70
2022-12-29T07:46:06.493Z,6.23
2022-12-29T07:48:36.911Z,6.30
2022-12-29T07:51:04.996Z,6.30
2022-12-29T07:53:32.991Z,6.13
2022-12-29T07:56:02.031Z,6.83
2022-12-29T07:58:29.970Z,5.93
2022-12-29T08:00:58.419Z,5.43
2022-12-29T08:03:27.902Z,5.80
2022-12-29T08:05:55.825Z,5.80
2022-12-29T08:08:23.716Z,5.03
2022-12-29T08:10:51.712Z,6.37
2022-12-29T08:13:19.625Z,6.50
2022-12-29T08:15:47.568Z,8.57
2022-12-29T08:18:15.669Z,10.63
2022-12-29T08:20:44.952Z,8.67
2022-12-29T08:23:12.855Z,8.30
2022-12-29T08:25:40.727Z,6.10
2022-12-29T08:28:08.673Z,5.70
2022-12-29T08:30:37.839Z,6.10
2022-12-29T08:33:05.756Z,5.40
2022-12-29T08:35:33.652Z,4.83
2022-12-29T08:38:02.919Z,4.97
2022-12-29T08:40:30.852Z,4.73
2022-12-29T08:42:58.762Z,4.50
2022-12-29T08:45:26.813Z,5.00
2022-12-29T08:47:54.683Z,4.83
2022-12-29T08:50:22.646Z,4.50
2022-12-29T08:52:50.595Z,4.53
2022-12-29T08:55:19.938Z,4.43
2022-12-29T08:57:48.820Z,4.17
2022-12-29T09:00:21.195Z,4.93
2022-12-29T09:02:49.576Z,4.33
2022-12-29T09:05:17.890Z,4.00
2022-12-29T09:07:46.245Z,4.30
2022-12-29T09:10:14.273Z,4.20
2022-12-29T09:12:43.569Z,4.17
2022-12-29T09:15:13.039Z,4.20
2022-12-29T09:17:44.391Z,4.10
2022-12-29T09:20:13.086Z,4.10
2022-12-29T09:22:41.134Z,4.23
2022-12-29T09:25:10.374Z,4.27
2022-12-29T09:27:39.023Z,4.40
2022-12-29T09:30:11.127Z,4.57
2022-12-29T09:32:44.615Z,4.20
2022-12-29T09:35:14.520Z,4.80
2022-12-29T09:37:42.932Z,5.37
2022-12-29T09:40:23.918Z,4.47
2022-12-29T09:43:03.349Z,4.90
2022-12-29T09:45:38.243Z,4.80
2022-12-29T09:48:09.950Z,4.23
2022-12-29T09:50:39.813Z,4.33
2022-12-29T09:53:16.667Z,4.27
2022-12-29T09:55:49.585Z,4.33
2022-12-29T09:58:23.608Z,4.70
2022-12-29T10:01:00.797Z,4.70
2022-12-29T10:03:38.423Z,4.60
2022-12-29T10:06:12.000Z,4.33
2022-12-29T10:08:46.586Z,4.50
2022-12-29T10:11:33.233Z,4.40
2022-12-29T10:14:19.726Z,4.90
2022-12-29T10:17:02.500Z,5.10
2022-12-29T10:19:49.245Z,4.87
2022-12-29T10:22:30.631Z,4.63
2022-12-29T10:24:58.724Z,5.93
2022-12-29T10:27:34.793Z,5.53
2022-12-29T10:30:04.759Z,5.40
2022-12-29T10:32:40.323Z,4.50
2022-12-29T10:35:16.281Z,4.90
2022-12-29T10:37:48.205Z,5.50
2022-12-29T10:40:23.953Z,5.53
2022-12-29T10:42:55.588Z,5.07
2022-12-29T10:45:29.726Z,4.47
2022-12-29T10:48:04.225Z,6.47
2022-12-29T10:50:32.204Z,5.20
2022-12-29T10:53:03.979Z,5.10
2022-12-29T10:55:36.695Z,5.30
2022-12-29T10:58:08.121Z,5.40
2022-12-29T11:00:36.445Z,4.80
2022-12-29T11:03:42.728Z,4.60
2022-12-29T11:06:14.686Z,5.17
2022-12-29T11:08:52.246Z,4.70
2022-12-29T11:11:27.079Z,4.47
2022-12-29T11:14:00.007Z,4.57
2022-12-29T11:16:32.679Z,4.80
2022-12-29T11:19:02.067Z,4.90
2022-12-29T11:21:35.038Z,4.53
2022-12-29T11:24:05.681Z,4.53
2022-12-29T11:26:34.948Z,4.40
2022-12-29T11:29:27.724Z,4.30
2022-12-29T11:31:59.048Z,4.37
2022-12-29T11:34:33.696Z,4.67
2022-12-29T11:37:04.785Z,4.93
2022-12-29T11:39:41.351Z,5.60
2022-12-29T11:42:17.671Z,5.03
2022-12-29T11:44:47.930Z,5.57
2022-12-29T11:47:26.184Z,4.60
2022-12-29T11:49:58.846Z,4.63
2022-12-29T11:52:29.133Z,4.27
2022-12-29T11:54:58.616Z,4.57
2022-12-29T11:57:43.808Z,4.73
2022-12-29T12:00:20.216Z,4.37
2022-12-29T12:02:58.859Z,4.70
2022-12-29T12:05:35.449Z,4.70
2022-12-29T12:08:13.948Z,4.67
2022-12-29T12:10:50.120Z,5.20
2022-12-29T12:13:24.615Z,4.40
2022-12-29T12:15:57.759Z,4.67
2022-12-29T12:18:36.210Z,4.27
2022-12-29T12:21:15.521Z,4.80
2022-12-29T12:23:58.323Z,4.83
2022-12-29T12:26:34.272Z,4.27
2022-12-29T12:29:07.719Z,4.60
2022-12-29T12:31:46.860Z,4.77
2022-12-29T12:34:19.953Z,5.00
2022-12-29T12:37:04.470Z,4.87
2022-12-29T12:39:45.250Z,4.73
2022-12-29T12:42:27.937Z,4.53
2022-12-29T12:45:06.456Z,4.67
2022-12-29T12:47:46.332Z,4.50
2022-12-29T12:50:28.908Z,4.37
2022-12-29T12:53:16.808Z,4.40
2022-12-29T12:56:03.659Z,4.73
2022-12-29T12:58:40.071Z,4.60
2022-12-29T13:01:26.028Z,3.80
2022-12-29T13:04:11.029Z,4.20
2022-12-29T13:06:47.403Z,4.37
2022-12-29T13:09:30.957Z,4.37
2022-12-29T13:12:12.253Z,4.77
2022-12-29T13:14:55.827Z,4.73
2022-12-29T13:17:31.975Z,5.37
2022-12-29T13:20:10.475Z,5.23
2022-12-29T13:22:46.373Z,5.13
2022-12-29T13:25:29.774Z,5.07
2022-12-29T13:28:03.671Z,5.23
2022-12-29T13:30:36.597Z,5.30
2022-12-29T13:33:20.924Z,4.40
2022-12-29T13:35:57.663Z,4.63
2022-12-29T13:38:31.136Z,4.60
2022-12-29T13:41:05.262Z,4.90
2022-12-29T13:43:41.326Z,4.77
2022-12-29T13:46:14.586Z,4.90
2022-12-29T13:48:48.351Z,6.67
2022-12-29T13:51:21.388Z,10.40
2022-12-29T13:54:19.972Z,6.83
2022-12-29T13:56:54.563Z,6.67
2022-12-29T13:59:30.574Z,6.67
2022-12-29T14:02:05.510Z,5.90
2022-12-29T14:04:36.029Z,7.30
2022-12-29T14:07:06.586Z,7.40
2022-12-29T14:09:48.287Z,6.83
2022-12-29T14:12:40.636Z,7.27
2022-12-29T14:15:25.356Z,6.17
2022-12-29T14:18:07.560Z,5.90
2022-12-29T14:20:36.530Z,4.97
2022-12-29T14:23:19.153Z,5.30
2022-12-29T14:26:01.092Z,5.03
2022-12-29T14:28:32.449Z,5.13
2022-12-29T14:31:01.524Z,4.80
2022-12-29T14:33:31.711Z,4.67
2022-12-29T14:36:23.652Z,5.00
2022-12-29T14:38:51.911Z,5.00
2022-12-29T14:41:28.491Z,5.13
2022-12-29T14:44:01.508Z,5.53
2022-12-29T14:46:48.206Z,5.43
2022-12-29T14:49:20.603Z,5.40
2022-12-29T14:51:49.891Z,6.40
2022-12-29T14:54:43.349Z,7.30
2022-12-29T14:57:21.063Z,8.10
2022-12-29T14:59:54.491Z,9.30
2022-12-29T15:02:26.957Z,8.57
2022-12-29T15:05:00.208Z,8.83
2022-12-29T15:07:29.928Z,7.20
2022-12-29T15:10:05.636Z,6.57
2022-12-29T15:12:39.220Z,5.33
2022-12-29T15:15:21.263Z,6.27
2022-12-29T15:17:49.469Z,5.30
2022-12-29T15:20:24.462Z,7.43
2022-12-29T15:22:56.885Z,6.80
2022-12-29T15:25:26.210Z,6.40
2022-12-29T15:28:03.788Z,5.90
2022-12-29T15:30:34.663Z,5.40
2022-12-29T15:33:03.709Z,6.10
2022-12-29T15:35:35.267Z,6.77
2022-12-29T15:38:16.991Z,6.67
2022-12-29T15:40:46.866Z,8.13
2022-12-29T15:43:44.884Z,7.70
2022-12-29T15:46:16.416Z,8.37
2022-12-29T15:48:44.884Z,9.17
2022-12-29T15:51:26.491Z,7.33
2022-12-29T15:53:56.267Z,6.70
2022-12-29T15:56:24.278Z,6.60
2022-12-29T15:58:53.745Z,5.90
2022-12-29T16:01:29.783Z,5.30
2022-12-29T16:04:00.073Z,6.93
2022-12-29T16:06:31.790Z,6.60
2022-12-29T16:09:03.467Z,6.60
2022-12-29T16:11:50.449Z,6.13
2022-12-29T16:14:21.933Z,6.53
2022-12-29T16:16:52.522Z,6.60
2022-12-29T16:19:25.874Z,6.23
2022-12-29T16:21:54.059Z,6.13
2022-12-29T16:24:25.453Z,5.90
2022-12-29T16:26:57.258Z,6.30
2022-12-29T16:29:25.601Z,6.13
2022-12-29T16:32:01.537Z,6.37
2022-12-29T16:34:32.686Z,6.13
2022-12-29T16:37:02.086Z,6.17
2022-12-29T16:39:36.809Z,6.83
2022-12-29T16:42:38.665Z,6.50
2022-12-29T16:45:36.663Z,5.87
2022-12-29T16:48:20.280Z,6.53
2022-12-29T16:50:49.563Z,6.40
2022-12-29T16:53:21.909Z,5.50
2022-12-29T16:55:51.196Z,5.33
2022-12-29T16:58:23.364Z,5.97
2022-12-29T17:00:54.036Z,6.07
2022-12-29T17:03:23.541Z,5.23
2022-12-29T17:05:57.215Z,6.73
2022-12-29T17:08:25.771Z,6.10
2022-12-29T17:11:13.176Z,6.20
2022-12-29T17:13:41.498Z,6.87
2022-12-29T17:16:12.559Z,6.23
2022-12-29T17:18:41.952Z,6.30
2022-12-29T17:21:09.912Z,6.00
2022-12-29T17:23:37.828Z,6.33
2022-12-29T17:26:06.269Z,5.97
2022-12-29T17:28:34.570Z,5.63
2022-12-29T17:31:04.521Z,5.90
2022-12-29T17:33:38.149Z,6.10
2022-12-29T17:36:08.399Z,6.60
2022-12-29T17:38:38.189Z,6.37
2022-12-29T17:41:12.500Z,6.07
2022-12-29T17:43:41.142Z,6.20
2022-12-29T17:46:09.839Z,6.70
2022-12-29T17:48:38.094Z,7.53
2022-12-29T17:51:08.045Z,11.60
2022-12-29T17:53:36.200Z,10.57
2022-12-29T17:56:04.406Z,9.03
2022-12-29T17:58:34.032Z,7.53
2022-12-29T18:01:03.886Z,7.03
2022-12-29T18:03:35.116Z,7.50
2022-12-29T18:06:06.428Z,7.73
2022-12-29T18:08:36.232Z,9.10
2022-12-29T18:15:04.015Z,14.20
2022-12-29T18:17:31.997Z,11.10
2022-12-29T18:20:00.117Z,14.30
2022-12-29T18:22:30.187Z,19.13
2022-12-29T18:24:59.503Z,7.27
2022-12-29T18:27:28.007Z,7.60
2022-12-29T18:29:55.993Z,7.00
2022-12-29T18:32:24.167Z,8.10
2022-12-29T18:34:52.152Z,7.17
2022-12-29T18:37:20.172Z,7.67
2022-12-29T18:39:48.142Z,6.37
2022-12-29T18:42:19.483Z,7.10
2022-12-29T18:44:47.415Z,7.03
2022-12-29T18:47:15.423Z,7.10
2022-12-29T18:49:43.517Z,7.70
2022-12-29T18:52:14.813Z,7.53
2022-12-29T18:54:42.772Z,9.03
2022-12-29T18:57:10.835Z,11.97
2022-12-29T18:59:41.047Z,11.90
2022-12-29T19:02:17.571Z,13.27
2022-12-29T19:04:48.907Z,11.80
2022-12-29T19:07:20.876Z,15.83
2022-12-29T19:09:48.833Z,13.90
2022-12-29T19:12:17.221Z,18.13
2022-12-29T19:14:46.940Z,13.80
2022-12-29T19:17:15.808Z,19.17
2022-12-29T19:19:43.794Z,15.53
2022-12-29T19:22:11.717Z,20.13
2022-12-29T19:24:39.839Z,18.33
2022-12-29T19:27:07.724Z,12.73
2022-12-29T19:29:35.829Z,8.73
2022-12-29T19:32:05.489Z,8.60
2022-12-29T19:34:33.613Z,9.27
2022-12-29T19:37:01.695Z,12.43
2022-12-29T19:39:29.721Z,12.57
2022-12-29T19:42:03.585Z,13.20
2022-12-29T19:44:33.389Z,9.93
2022-12-29T19:47:01.349Z,8.07
2022-12-29T19:49:30.910Z,9.50
2022-12-29T19:51:58.977Z,9.40
2022-12-29T19:54:27.035Z,9.50
2022-12-29T19:56:55.012Z,11.37
2022-12-29T19:59:22.973Z,9.67
2022-12-29T20:01:51.397Z,9.43
2022-12-29T20:04:19.454Z,10.60
2022-12-29T20:06:48.707Z,11.20
2022-12-29T20:09:16.777Z,16.37
2022-12-29T20:11:44.713Z,11.13
2022-12-29T20:14:12.838Z,10.10
2022-12-29T20:17:02.381Z,9.37
2022-12-29T20:19:30.492Z,8.70
2022-12-29T20:21:59.811Z,8.33
2022-12-29T20:24:28.253Z,8.67
2022-12-29T20:26:56.220Z,10.77
2022-12-29T20:29:24.759Z,9.23
2022-12-29T20:31:53.872Z,9.67
2022-12-29T20:34:22.237Z,8.50
2022-12-29T20:36:50.979Z,8.23
2022-12-29T20:39:21.516Z,8.13
2022-12-29T20:41:49.774Z,10.33
2022-12-29T20:44:17.798Z,8.73
2022-12-29T20:46:45.885Z,9.13
2022-12-29T20:49:14.088Z,8.70
2022-12-29T20:54:38.746Z,7.63
2022-12-29T20:57:07.807Z,6.83
2022-12-29T20:59:35.826Z,7.80
2022-12-29T21:02:04.133Z,8.10
2022-12-29T21:04:57.349Z,7.37
2022-12-29T21:07:20.545Z,7.70
2022-12-29T21:09:49.924Z,7.20
2022-12-29T21:12:17.918Z,7.30
2022-12-29T21:14:46.225Z,7.17
2022-12-29T21:17:14.467Z,8.53
2022-12-29T21:19:42.445Z,7.67
2022-12-29T21:22:10.467Z,8.47
2022-12-29T21:24:39.542Z,7.37
2022-12-29T21:27:08.870Z,7.60
2022-12-29T21:29:36.814Z,7.20
2022-12-29T21:32:06.647Z,9.63
2022-12-29T21:34:35.507Z,8.90
2022-12-29T21:37:03.566Z,9.67
2022-12-29T21:39:31.477Z,8.87
2022-12-29T21:42:00.281Z,7.77
2022-12-29T21:44:47.340Z,7.50
2022-12-29T21:47:15.383Z,7.63
2022-12-29T21:49:43.388Z,7.30
2022-12-29T21:52:11.320Z,9.07
2022-12-29T21:54:56.681Z,8.07
2022-12-29T21:57:42.277Z,7.43
2022-12-29T22:00:30.691Z,7.63
2022-12-29T22:03:22.391Z,7.00
2022-12-29T22:06:09.027Z,7.77
2022-12-29T22:08:55.180Z,7.73
2022-12-29T22:11:40.831Z,7.70
2022-12-29T22:14:08.819Z,7.73
2022-12-29T22:16:38.136Z,7.47
2022-12-29T22:19:07.834Z,7.33
2022-12-29T22:21:35.796Z,8.20
2022-12-29T22:24:03.749Z,8.10
2022-12-29T22:26:31.957Z,7.77
2022-12-29T22:29:00.016Z,7.97
2022-12-29T22:31:30.204Z,8.13
2022-12-29T22:34:01.733Z,7.07
2022-12-29T22:36:30.326Z,8.10
2022-12-29T22:38:58.254Z,7.77
2022-12-29T22:41:26.415Z,8.70
2022-12-29T22:43:54.530Z,7.93
2022-12-29T22:46:22.856Z,8.07
2022-12-29T22:48:50.819Z,6.83
2022-12-29T22:51:20.074Z,7.50
2022-12-29T22:53:49.968Z,7.50
2022-12-29T22:56:17.951Z,8.03
2022-12-29T22:58:47.632Z,7.43
2022-12-29T23:01:18.319Z,7.60
2022-12-29T23:03:46.475Z,7.67
2022-12-29T23:06:17.413Z,6.87
2022-12-29T23:08:47.431Z,7.70
2022-12-29T23:11:16.229Z,7.90
2022-12-29T23:13:45.096Z,8.40
2022-12-29T23:16:13.510Z,7.50
2022-12-29T23:18:41.661Z,7.43
2022-12-29T23:21:10.219Z,7.10
2022-12-29T23:23:56.977Z,7.57
2022-12-29T23:26:28.256Z,7.43
2022-12-29T23:29:00.229Z,8.43
2022-12-29T23:31:29.695Z,7.40
2022-12-29T23:33:57.881Z,8.50
2022-12-29T23:36:26.146Z,7.43
2022-12-29T23:38:54.233Z,8.00
2022-12-29T23:41:22.133Z,8.30
2022-12-29T23:43:51.755Z,7.50
2022-12-29T23:46:21.868Z,7.23
2022-12-29T23:48:50.158Z,7.27
2022-12-29T23:51:18.559Z,7.17
2022-12-29T23:53:46.933Z,7.80
2022-12-29T23:56:17.985Z,7.47
2022-12-29T23:58:45.927Z,8.40
